createdAt,value
2018-09-13T00:00:05.351Z,95659.88
2018-09-13T00:02:36.405Z,95661.09
2018-09-13T00:07:41.189Z,95660.29
2018-09-13T00:10:10.230Z,95667.33
2018-09-13T00:12:39.268Z,95668.04
2018-09-13T00:15:08.320Z,95666.59
2018-09-13T00:17:37.363Z,95667.72
2018-09-13T00:20:06.403Z,95668.22
2018-09-13T00:22:36.379Z,95667.09
2018-09-13T00:27:41.143Z,95671.72
2018-09-13T00:30:10.208Z,95667.52
2018-09-13T00:32:39.250Z,95671.87
2018-09-13T00:37:44.081Z,95673.42
2018-09-13T00:40:13.128Z,95674.22
2018-09-13T00:42:44.120Z,95671.42
2018-09-13T00:45:14.128Z,95675.41
2018-09-13T00:50:20.836Z,95671.34
2018-09-13T00:52:49.891Z,95668.69
2018-09-13T00:55:18.948Z,95666.78
2018-09-13T00:57:49.983Z,95665.25
2018-09-13T01:00:19.028Z,95660.59
2018-09-13T01:02:48.078Z,95656.13
2018-09-13T01:05:17.149Z,95647.84
2018-09-13T01:07:46.190Z,95650.41
2018-09-13T01:10:15.246Z,95650.20
2018-09-13T01:12:45.276Z,95654.15
2018-09-13T01:17:50.054Z,95648.79
2018-09-13T01:20:20.049Z,95650.86
2018-09-13T01:25:24.820Z,95652.63
2018-09-13T01:27:53.861Z,95643.89
2018-09-13T01:30:22.917Z,95644.64
2018-09-13T01:32:51.975Z,95634.64
2018-09-13T01:35:21.028Z,95629.70
2018-09-13T01:43:01.530Z,95624.43
2018-09-13T01:48:07.367Z,95626.29
2018-09-13T01:50:36.417Z,95622.30
2018-09-13T01:53:05.465Z,95624.33
2018-09-13T01:55:34.588Z,95621.06
2018-09-13T01:58:03.614Z,95617.91
2018-09-13T02:00:33.577Z,95609.94
2018-09-13T02:08:14.216Z,95616.90
2018-09-13T02:14:08.954Z,95615.36
2018-09-13T02:16:37.984Z,95612.20
2018-09-13T02:19:14.441Z,95607.04
2018-09-13T02:24:19.204Z,95595.37
2018-09-13T02:26:50.235Z,95599.26
2018-09-13T02:31:55.006Z,95593.20
2018-09-13T02:36:59.762Z,95598.77
2018-09-13T02:39:32.226Z,95604.41
2018-09-13T02:42:01.297Z,95611.94
2018-09-13T02:44:30.354Z,95619.23
2018-09-13T02:46:59.404Z,95633.92
2018-09-13T02:52:05.184Z,95667.79
2018-09-13T02:54:34.228Z,95678.27
2018-09-13T02:57:03.264Z,95674.51
2018-09-13T02:59:32.324Z,95674.63
2018-09-13T03:02:03.325Z,95675.27
2018-09-13T03:04:32.392Z,95678.05
2018-09-13T03:07:01.433Z,95680.78
2018-09-13T03:09:31.433Z,95674.63
2018-09-13T03:14:37.224Z,95676.79
2018-09-13T03:17:06.277Z,95680.05
2018-09-13T03:19:35.334Z,95675.92
2018-09-13T03:22:05.315Z,95673.64
2018-09-13T03:27:10.102Z,95673.17
2018-09-13T03:29:39.151Z,95678.66
2018-09-13T03:32:08.201Z,95673.83
2018-09-13T03:34:41.203Z,95667.22
2018-09-13T03:37:10.279Z,95666.20
2018-09-13T03:39:40.285Z,95665.45
2018-09-13T03:42:10.312Z,95660.17
2018-09-13T03:45:02.833Z,95662.94
2018-09-13T03:47:31.858Z,95666.97
2018-09-13T03:52:37.717Z,95664.58
2018-09-13T03:55:06.779Z,95669.91
2018-09-13T03:57:35.853Z,95672.12
2018-09-13T04:00:04.887Z,95673.17
2018-09-13T04:02:33.952Z,95664.68
2018-09-13T04:05:07.394Z,95667.67
2018-09-13T04:10:12.300Z,95664.05
2018-09-13T04:12:41.353Z,95669.08
2018-09-13T04:17:47.045Z,95661.48
2018-09-13T04:20:16.080Z,95661.20
2018-09-13T04:22:45.210Z,95662.86
2018-09-13T04:25:15.241Z,95661.73
2018-09-13T04:27:44.290Z,95661.48
2018-09-13T04:30:13.345Z,95661.20
2018-09-13T04:32:43.517Z,95662.82
2018-09-13T04:35:12.562Z,95664.71
2018-09-13T04:37:43.608Z,95665.92
2018-09-13T04:40:12.687Z,95662.54
2018-09-13T04:42:41.740Z,95666.41
2018-09-13T04:47:46.587Z,95657.27
2018-09-13T04:52:52.441Z,95652.73
2018-09-13T04:55:23.484Z,95653.36
2018-09-13T04:57:52.545Z,95654.09
2018-09-13T05:00:21.621Z,95652.66
2018-09-13T05:02:50.675Z,95649.33
2018-09-13T05:05:20.719Z,95651.25
2018-09-13T05:07:49.797Z,95649.63
2018-09-13T05:12:54.661Z,95648.21
2018-09-13T05:15:23.617Z,95651.64
2018-09-13T05:17:52.760Z,95654.98
2018-09-13T05:20:21.817Z,95652.33
2018-09-13T05:22:51.856Z,95651.63
2018-09-13T05:25:20.913Z,95649.19
2018-09-13T05:27:49.952Z,95647.00
2018-09-13T05:32:55.757Z,95636.38
2018-09-13T05:35:24.801Z,95631.67
2018-09-13T05:37:53.840Z,95631.39
2018-09-13T05:40:22.915Z,95637.25
2018-09-13T05:42:51.963Z,95636.26
2018-09-13T05:45:21.179Z,95637.19
2018-09-13T05:47:50.230Z,95637.14
2018-09-13T05:50:19.272Z,95643.47
2018-09-13T05:55:24.110Z,95644.41
2018-09-13T05:57:53.148Z,95638.48
2018-09-13T06:00:25.540Z,95636.41
2018-09-13T06:02:55.580Z,95637.69
2018-09-13T06:05:29.278Z,95640.20
2018-09-13T06:07:58.424Z,95644.25
2018-09-13T06:10:27.446Z,95641.55
2018-09-13T06:12:59.545Z,95645.27
2018-09-13T06:15:30.609Z,95644.38
2018-09-13T06:18:00.639Z,95646.73
2018-09-13T06:20:29.656Z,95650.16
2018-09-13T06:23:02.909Z,95649.94
2018-09-13T06:25:33.955Z,95658.14
2018-09-13T06:28:03.020Z,95657.00
2018-09-13T06:30:33.061Z,95660.92
2018-09-13T06:33:02.127Z,95658.06
2018-09-13T06:35:31.172Z,95656.24
2018-09-13T06:38:02.224Z,95655.78
2018-09-13T06:40:38.567Z,95656.70
2018-09-13T06:43:07.617Z,95652.55
2018-09-13T06:45:38.609Z,95656.63
2018-09-13T06:48:09.696Z,95657.00
2018-09-13T06:50:43.890Z,95660.66
2018-09-13T06:53:13.959Z,95661.86
2018-09-13T06:55:44.947Z,95666.33
2018-09-13T06:58:14.967Z,95663.46
2018-09-13T07:00:44.020Z,95666.62
2018-09-13T07:03:14.069Z,95669.75
2018-09-13T07:05:45.121Z,95672.58
2018-09-13T07:08:14.176Z,95673.43
2018-09-13T07:10:44.132Z,95674.13
2018-09-13T07:15:49.129Z,95673.38
2018-09-13T07:18:18.155Z,95674.22
2018-09-13T07:20:48.102Z,95676.75
2018-09-13T07:23:17.185Z,95677.49
2018-09-13T07:25:46.716Z,95674.67
2018-09-13T07:28:15.805Z,95676.66
2018-09-13T07:30:44.867Z,95680.88
2018-09-13T07:33:14.831Z,95679.70
2018-09-13T07:35:43.888Z,95685.39
2018-09-13T07:38:12.925Z,95683.15
2018-09-13T07:40:41.985Z,95683.16
2018-09-13T07:43:11.925Z,95687.45
2018-09-13T07:45:40.967Z,95683.38
2018-09-13T07:48:10.020Z,95684.73
2018-09-13T07:50:39.077Z,95683.44
2018-09-13T07:55:43.835Z,95685.92
2018-09-13T07:58:16.066Z,95688.30
2018-09-13T08:00:46.106Z,95690.53
2018-09-13T08:03:15.200Z,95689.80
2018-09-13T08:05:44.247Z,95692.19
2018-09-13T08:08:13.353Z,95691.71
2018-09-13T08:10:42.399Z,95694.34
2018-09-13T08:13:11.454Z,95693.15
2018-09-13T08:15:40.643Z,95690.62
2018-09-13T08:18:09.682Z,95696.21
2018-09-13T08:20:38.728Z,95697.61
2018-09-13T08:23:07.787Z,95696.84
2018-09-13T08:25:37.808Z,95703.50
2018-09-13T08:28:06.858Z,95702.61
2018-09-13T08:30:35.901Z,95700.07
2018-09-13T08:33:04.992Z,95699.41
2018-09-13T08:38:09.933Z,95695.88
2018-09-13T08:40:39.009Z,95700.72
2018-09-13T08:43:08.137Z,95695.37
2018-09-13T08:45:37.108Z,95684.28
2018-09-13T08:48:06.156Z,95692.02
2018-09-13T08:50:35.230Z,95686.07
2018-09-13T08:53:07.323Z,95685.88
2018-09-13T08:58:12.099Z,95684.73
2018-09-13T09:00:43.128Z,95682.80
2018-09-13T09:03:13.133Z,95683.10
2018-09-13T09:08:18.011Z,95683.66
2018-09-13T09:10:54.884Z,95683.11
2018-09-13T09:13:24.911Z,95690.09
2018-09-13T09:15:53.946Z,95684.12
2018-09-13T09:21:06.302Z,95676.91
2018-09-13T09:23:35.357Z,95679.65
2018-09-13T09:26:06.358Z,95678.16
2018-09-13T09:28:37.388Z,95675.38
2018-09-13T09:33:42.280Z,95673.26
2018-09-13T09:36:15.596Z,95668.25
2018-09-13T09:41:20.411Z,95669.63
2018-09-13T09:43:49.469Z,95669.20
2018-09-13T09:46:18.663Z,95669.96
2018-09-13T09:48:47.685Z,95664.75
2018-09-13T09:51:20.168Z,95664.91
2018-09-13T09:53:49.216Z,95663.69
2018-09-13T09:56:20.207Z,95662.97
2018-09-13T09:58:50.206Z,95665.20
2018-09-13T10:01:19.287Z,95664.75
2018-09-13T10:03:48.313Z,95663.53
2018-09-13T10:08:53.219Z,95658.73
2018-09-13T10:11:23.196Z,95660.59
2018-09-13T10:13:52.248Z,95651.02
2018-09-13T10:18:58.099Z,95653.66
2018-09-13T10:38:52.487Z,95658.92
2018-09-13T10:47:16.209Z,95649.00
2018-09-13T10:52:21.124Z,95651.53
2018-09-13T10:54:52.085Z,95651.00
2018-09-13T10:59:59.340Z,95641.67
2018-09-13T11:07:39.943Z,95625.02
2018-09-13T11:10:09.004Z,95620.73
2018-09-13T11:12:39.051Z,95619.42
2018-09-13T11:17:43.893Z,95618.14
2018-09-13T11:20:12.961Z,95612.38
2018-09-13T11:22:42.014Z,95609.31
2018-09-13T11:25:11.063Z,95610.97
2018-09-13T11:27:40.108Z,95613.80
2018-09-13T11:32:44.935Z,95610.37
2018-09-13T11:35:14.164Z,95602.47
2018-09-13T11:45:30.542Z,95589.79
2018-09-13T11:50:35.356Z,95587.80
2018-09-13T11:53:04.432Z,95584.80
2018-09-13T11:55:36.498Z,95579.45
2018-09-13T11:58:05.544Z,95582.92
2018-09-13T12:00:34.609Z,95580.56
2018-09-13T12:03:05.629Z,95583.89
2018-09-13T12:05:35.670Z,95585.33
2018-09-13T12:08:05.667Z,95581.37
2018-09-13T12:10:34.720Z,95578.41
2018-09-13T12:18:15.377Z,95575.52
2018-09-13T12:20:45.409Z,95572.98
2018-09-13T12:23:14.455Z,95567.14
2018-09-13T12:25:44.520Z,95570.88
2018-09-13T12:28:14.533Z,95570.23
2018-09-13T12:30:44.545Z,95569.78
2018-09-13T12:33:13.604Z,95565.26
2018-09-13T12:38:18.449Z,95558.43
2018-09-13T12:43:23.425Z,95552.22
2018-09-13T12:45:52.468Z,95548.85
2018-09-13T12:48:21.524Z,95549.11
2018-09-13T12:50:50.670Z,95540.36
2018-09-13T12:53:20.613Z,95540.20
2018-09-13T12:55:50.599Z,95533.45
2018-09-13T12:58:20.605Z,95535.71
2018-09-13T13:00:53.163Z,95530.48
2018-09-13T13:06:04.090Z,95526.63
2018-09-13T13:08:35.177Z,95522.50
2018-09-13T13:11:06.767Z,95521.75
2018-09-13T13:16:11.197Z,95512.60
2018-09-13T13:18:40.243Z,95514.10
2018-09-13T13:21:10.249Z,95508.17
2018-09-13T13:23:39.324Z,95505.42
2018-09-13T13:28:44.237Z,95498.66
2018-09-13T13:33:51.104Z,95485.39
2018-09-13T13:36:20.178Z,95483.10
2018-09-13T13:38:51.146Z,95485.22
2018-09-13T13:41:24.125Z,95480.58
2018-09-13T13:44:06.680Z,95482.74
2018-09-13T13:49:11.500Z,95474.12
2018-09-13T13:51:40.536Z,95470.84
2018-09-13T13:54:22.830Z,95465.97
2018-09-13T13:56:51.887Z,95460.81
2018-09-13T13:59:21.908Z,95458.61
2018-09-13T14:01:51.073Z,95457.73
2018-09-13T14:04:20.136Z,95454.20
2018-09-13T14:06:51.151Z,95457.04
2018-09-13T14:09:20.181Z,95456.53
2018-09-13T14:11:50.164Z,95454.56
2018-09-13T14:14:20.198Z,95446.81
2018-09-13T14:16:49.241Z,95444.80
2018-09-13T14:19:18.290Z,95434.30
2018-09-13T14:21:47.344Z,95432.80
2018-09-13T14:24:16.409Z,95426.73
2018-09-13T14:26:45.460Z,95429.08
2018-09-13T14:29:15.519Z,95435.73
2018-09-13T14:31:46.532Z,95436.04
2018-09-13T14:34:19.118Z,95436.45
2018-09-13T14:36:48.173Z,95436.77
2018-09-13T14:39:17.413Z,95447.12
2018-09-13T14:41:46.477Z,95442.91
2018-09-13T14:44:15.531Z,95446.79
2018-09-13T14:46:44.593Z,95453.91
2018-09-13T14:49:13.632Z,95452.30
2018-09-13T14:51:42.706Z,95449.11
2018-09-13T14:54:11.745Z,95452.48
2018-09-13T14:59:16.601Z,95464.69
2018-09-13T15:04:22.443Z,95484.55
2018-09-13T15:06:51.521Z,95492.53
2018-09-13T15:09:20.586Z,95499.41
2018-09-13T15:11:49.643Z,95497.97
2018-09-13T15:14:18.695Z,95502.27
2018-09-13T15:19:28.112Z,95500.86
2018-09-13T15:21:57.166Z,95505.48
2018-09-13T15:24:26.260Z,95505.54
2018-09-13T15:26:55.288Z,95514.83
2018-09-13T15:32:00.064Z,95516.60
2018-09-13T15:34:29.100Z,95527.00
2018-09-13T15:36:58.250Z,95526.64
2018-09-13T15:39:27.296Z,95533.31
2018-09-13T15:41:56.360Z,95534.02
2018-09-13T15:44:27.426Z,95533.06
2018-09-13T15:46:58.418Z,95538.88
2018-09-13T15:49:29.461Z,95544.45
2018-09-13T15:52:00.502Z,95547.23
2018-09-13T15:54:29.585Z,95550.69
2018-09-13T15:59:35.653Z,95544.73
2018-09-13T16:02:05.618Z,95544.28
2018-09-13T16:04:34.661Z,95539.79
2018-09-13T16:07:04.834Z,95536.20
2018-09-13T16:12:09.660Z,95545.17
2018-09-13T16:14:38.773Z,95550.04
2018-09-13T16:17:07.858Z,95551.88
2018-09-13T16:22:13.651Z,95529.36
2018-09-13T16:24:42.699Z,95524.98
2018-09-13T16:27:11.748Z,95520.29
2018-09-13T16:29:40.801Z,95512.42
2018-09-13T16:32:09.836Z,95517.16
2018-09-13T16:37:14.627Z,95516.65
2018-09-13T16:40:00.469Z,95513.28
2018-09-13T16:42:35.051Z,95508.65
2018-09-13T16:47:59.492Z,95516.98
2018-09-13T16:53:04.360Z,95527.37
2018-09-13T16:55:33.440Z,95529.11
2018-09-13T17:00:38.230Z,95528.88
2018-09-13T17:03:08.223Z,95528.72
2018-09-13T17:05:38.248Z,95527.07
2018-09-13T17:08:09.213Z,95530.86
2018-09-13T17:13:14.090Z,95517.52
2018-09-13T17:15:43.145Z,95512.09
2018-09-13T17:18:13.160Z,95512.02
2018-09-13T17:20:42.240Z,95514.00
2018-09-13T17:23:11.324Z,95513.39
2018-09-13T17:25:41.326Z,95514.20
2018-09-13T17:28:11.304Z,95502.30
2018-09-13T17:30:40.363Z,95500.52
2018-09-13T17:33:09.406Z,95498.36
2018-09-13T17:35:40.436Z,95504.06
2018-09-13T17:38:14.956Z,95511.14
2018-09-13T17:40:44.014Z,95521.42
2018-09-13T17:43:13.072Z,95523.94
2018-09-13T17:45:42.129Z,95518.27
2018-09-13T17:48:11.164Z,95525.20
2018-09-13T17:50:42.201Z,95524.72
2018-09-13T17:53:11.245Z,95526.73
2018-09-13T17:55:40.453Z,95529.24
2018-09-13T18:03:24.789Z,95516.01
2018-09-13T18:05:58.502Z,95524.05
2018-09-13T18:08:28.527Z,95532.00
2018-09-13T18:11:01.139Z,95537.33
2018-09-13T18:13:33.905Z,95541.45
2018-09-13T18:18:38.756Z,95564.84
2018-09-13T18:21:08.754Z,95577.66
2018-09-13T18:23:38.829Z,95592.59
2018-09-13T18:26:07.829Z,95600.23
2018-09-13T18:31:15.637Z,95619.95
2018-09-13T18:33:44.754Z,95621.03
2018-09-13T18:36:14.810Z,95626.73
2018-09-13T18:38:43.875Z,95631.20
2018-09-13T18:41:13.060Z,95634.15
2018-09-13T18:43:42.114Z,95630.97
2018-09-13T18:46:16.185Z,95627.91
2018-09-13T18:48:47.212Z,95628.86
2018-09-13T18:51:17.180Z,95627.80
2018-09-13T18:56:22.466Z,95626.66
2018-09-13T18:58:51.525Z,95626.04
2018-09-13T19:01:20.583Z,95630.68
2018-09-13T19:03:50.584Z,95630.27
2018-09-13T19:06:19.633Z,95627.02
2018-09-13T19:08:48.693Z,95638.32
2018-09-13T19:16:29.405Z,95632.00
2018-09-13T19:18:58.468Z,95632.94
2018-09-13T19:21:27.517Z,95636.80
2018-09-13T19:24:05.192Z,95635.44
2018-09-13T19:26:34.225Z,95628.92
2018-09-13T19:29:03.303Z,95624.34
2018-09-13T19:31:34.314Z,95629.00
2018-09-13T19:34:03.376Z,95634.19
2018-09-13T19:36:43.959Z,95635.92
2018-09-13T19:39:13.669Z,95637.94
2018-09-13T19:41:42.729Z,95633.03
2018-09-13T19:44:11.892Z,95638.08
2018-09-13T19:46:40.909Z,95632.91
2018-09-13T19:49:09.979Z,95639.57
2018-09-13T19:51:39.062Z,95634.17
2018-09-13T19:54:08.103Z,95633.25
2018-09-13T20:01:52.161Z,95631.70
2018-09-13T20:04:21.218Z,95634.50
2018-09-13T20:06:50.267Z,95635.11
2018-09-13T20:09:20.289Z,95634.45
2018-09-13T20:11:53.163Z,95634.27
2018-09-13T20:16:58.949Z,95643.20
2018-09-13T20:19:28.009Z,95644.86
2018-09-13T20:21:57.067Z,95646.38
2018-09-13T20:24:26.195Z,95653.19
2018-09-13T20:26:57.210Z,95651.11
2018-09-13T20:32:02.054Z,95645.30
2018-09-13T20:34:31.120Z,95642.81
2018-09-13T20:37:00.176Z,95641.72
2018-09-13T20:39:30.259Z,95644.51
2018-09-13T20:41:59.316Z,95644.96
2018-09-13T20:44:28.426Z,95646.95
2018-09-13T20:46:57.493Z,95646.16
2018-09-13T20:49:26.563Z,95646.36
2018-09-13T20:51:56.565Z,95649.66
2018-09-13T20:54:25.636Z,95650.36
2018-09-13T20:56:54.721Z,95647.42
2018-09-13T21:02:00.529Z,95644.23
2018-09-13T21:07:06.316Z,95641.33
2018-09-13T21:09:39.709Z,95644.42
2018-09-13T21:12:09.670Z,95637.74
2018-09-13T21:14:38.709Z,95640.49
2018-09-13T21:17:07.837Z,95637.96
2018-09-13T21:19:36.823Z,95637.73
2018-09-13T21:22:06.842Z,95636.86
2018-09-13T21:27:12.624Z,95639.61
2018-09-13T21:29:41.708Z,95636.94
2018-09-13T21:32:10.706Z,95635.08
2018-09-13T21:34:39.761Z,95632.67
2018-09-13T21:37:08.801Z,95631.23
2018-09-13T21:42:13.581Z,95636.14
2018-09-13T21:44:43.584Z,95636.11
2018-09-13T21:49:48.347Z,95637.90
2018-09-13T21:52:17.396Z,95643.61
2018-09-13T21:54:46.440Z,95654.26
2018-09-13T21:57:17.468Z,95651.53
2018-09-13T22:02:22.244Z,95654.58
2018-09-13T22:04:51.279Z,95650.52
2018-09-13T22:07:20.329Z,95656.66
2018-09-13T22:12:25.200Z,95651.06
2018-09-13T22:17:30.062Z,95648.27
2018-09-13T22:19:59.142Z,95646.15
2018-09-13T22:25:05.913Z,95645.63
2018-09-13T22:27:34.961Z,95643.29
2018-09-13T22:30:04.024Z,95642.73
2018-09-13T22:32:33.073Z,95646.64
2018-09-13T22:35:03.143Z,95640.11
2018-09-13T22:37:32.206Z,95640.33
2018-09-13T22:40:01.266Z,95639.96
2018-09-13T22:45:09.157Z,95633.55
2018-09-13T22:47:38.212Z,95634.19
2018-09-13T22:50:08.277Z,95632.87
2018-09-13T22:52:37.413Z,95629.63
2018-09-13T22:55:06.469Z,95637.23
2018-09-13T22:57:37.518Z,95634.55
2018-09-13T23:00:06.564Z,95639.39
2018-09-13T23:02:37.583Z,95640.93
2018-09-13T23:05:07.580Z,95639.80
2018-09-13T23:07:37.607Z,95638.58
2018-09-13T23:10:06.657Z,95641.37
2018-09-13T23:12:35.724Z,95639.48
2018-09-13T23:15:04.809Z,95644.55
2018-09-13T23:17:33.918Z,95639.57
2018-09-13T23:20:02.893Z,95644.21
2018-09-13T23:25:07.664Z,95643.67
2018-09-13T23:30:14.445Z,95644.00
2018-09-13T23:32:43.494Z,95644.98
2018-09-13T23:35:13.572Z,95647.30
2018-09-13T23:40:18.594Z,95650.17
2018-09-13T23:42:47.524Z,95651.98
2018-09-13T23:45:18.575Z,95657.80
2018-09-13T23:47:47.651Z,95658.30
2018-09-13T23:50:18.624Z,95655.48
2018-09-13T23:55:23.475Z,95663.45
